Time;durP1;ratioP1;P1;durP2;ratioP2;P2;SDS_P1;SDS_P2;PMS_P1;PMS_P2;Temp;Humidity;BMP_temperature;BMP_pressure;BME280_temperature;BME280_humidity;BME280_pressure;Samples;Min_cycle;Max_cycle;Signal;HPM_P1;HPM_P2
2023/04/09 00:00:38;;;;;;;6.75;4.40;;;8.10;99.90;;;;;;5072606;28;20108;-82
2023/04/09 00:03:04;;;;;;;3.25;2.30;;;8.10;99.90;;;;;;5073422;28;20466;-81
2023/04/09 00:05:29;;;;;;;2.35;2.15;;;8.10;99.90;;;;;;5072084;28;20041;-80
2023/04/09 00:07:56;;;;;;;7.13;4.25;;;8.10;99.90;;;;;;5072401;28;20051;-80
2023/04/09 00:10:21;;;;;;;10.80;4.82;;;8.00;99.90;;;;;;5071762;28;20100;-81
2023/04/09 00:12:47;;;;;;;5.13;3.97;;;8.00;99.90;;;;;;5073355;28;20121;-82
2023/04/09 00:15:13;;;;;;;4.38;3.28;;;9.10;99.90;;;;;;5071016;28;20052;-81
2023/04/09 00:17:39;;;;;;;5.40;4.03;;;8.10;99.90;;;;;;5076952;28;20592;-81
2023/04/09 00:20:06;;;;;;;4.82;3.67;;;8.00;99.90;;;;;;5075096;28;20147;-82
2023/04/09 00:22:32;;;;;;;7.45;3.42;;;8.00;99.90;;;;;;5076315;28;20044;-82
2023/04/09 00:24:58;;;;;;;4.68;2.85;;;8.10;99.90;;;;;;5076096;28;20056;-81
2023/04/09 00:27:23;;;;;;;2.92;2.63;;;8.00;99.90;;;;;;5076720;28;20041;-81
2023/04/09 00:29:49;;;;;;;8.38;3.90;;;8.00;99.90;;;;;;5076512;28;20100;-81
2023/04/09 00:32:15;;;;;;;2.50;2.30;;;8.00;99.90;;;;;;5075821;28;20040;-82
2023/04/09 00:34:40;;;;;;;3.90;2.92;;;8.00;99.90;;;;;;5076200;28;20040;-81
2023/04/09 00:37:06;;;;;;;4.80;2.15;;;8.00;99.90;;;;;;5075660;28;20048;-81
2023/04/09 00:39:32;;;;;;;5.85;4.75;;;8.00;99.90;;;;;;5075164;28;20048;-81
2023/04/09 00:42:01;;;;;;;3.03;2.10;;;7.90;99.90;;;;;;5074433;28;20043;-80
2023/04/09 00:44:29;;;;;;;2.33;1.98;;;7.90;99.90;;;;;;5075216;28;20048;-82
2023/04/09 00:46:57;;;;;;;3.55;1.48;;;7.90;99.90;;;;;;5076163;28;20052;-81
2023/04/09 00:49:25;;;;;;;1.27;1.17;;;7.90;99.90;;;;;;5075230;28;20464;-81
2023/04/09 00:51:51;;;;;;;2.38;2.17;;;8.00;99.90;;;;;;5074325;28;20056;-82
2023/04/09 00:54:17;;;;;;;2.63;1.77;;;7.90;99.90;;;;;;5074388;28;20517;-81
2023/04/09 00:56:43;;;;;;;2.55;2.35;;;7.90;99.90;;;;;;5073549;28;20044;-81
2023/04/09 00:59:09;;;;;;;0.75;0.75;;;7.90;99.90;;;;;;5073213;28;20052;-82
2023/04/09 01:01:34;;;;;;;1.25;1.13;;;8.00;99.90;;;;;;5073842;28;20429;-82
2023/04/09 01:04:00;;;;;;;15.98;1.40;;;8.00;99.90;;;;;;5074726;28;20048;-80
2023/04/09 01:06:30;;;;;;;3.20;2.63;;;8.00;99.90;;;;;;5074163;28;20100;-81
2023/04/09 01:09:05;;;;;;;2.50;2.22;;;9.20;99.90;;;;;;5072432;28;20040;-81
2023/04/09 01:11:47;;;;;;;4.78;2.33;;;8.10;99.90;;;;;;5074249;28;20045;-81
2023/04/09 01:14:19;;;;;;;2.70;1.63;;;8.00;99.90;;;;;;5074024;28;20083;-81
2023/04/09 01:16:49;;;;;;;4.55;2.80;;;8.00;99.90;;;;;;5074848;28;20060;-81
2023/04/09 01:20:06;;;;;;;2.30;1.67;;;8.00;99.90;;;;;;5074053;28;20131;-80
2023/04/09 01:22:40;;;;;;;1.67;1.33;;;8.10;99.90;;;;;;5054649;28;20049;-81
2023/04/09 01:25:18;;;;;;;1.77;1.63;;;8.10;99.90;;;;;;5071854;28;20056;-82
2023/04/09 01:28:13;;;;;;;1.83;1.70;;;8.00;99.90;;;;;;5074178;28;20063;-81
2023/04/09 01:30:42;;;;;;;2.97;2.42;;;8.00;99.90;;;;;;5083621;28;20100;-80
2023/04/09 01:33:10;;;;;;;1.60;1.17;;;8.00;99.90;;;;;;5084497;28;20055;-81
2023/04/09 01:35:36;;;;;;;0.75;0.75;;;7.90;99.90;;;;;;5085415;28;20045;-80
2023/04/09 01:38:03;;;;;;;34.10;4.45;;;8.90;99.90;;;;;;5082277;28;20044;-82
2023/04/09 01:40:29;;;;;;;3.42;2.70;;;7.80;99.90;;;;;;5073827;28;20092;-82
2023/04/09 01:42:56;;;;;;;2.88;1.70;;;7.80;99.90;;;;;;5074772;28;20047;-81
2023/04/09 01:45:22;;;;;;;2.72;1.17;;;7.80;99.90;;;;;;5075436;28;20100;-82
2023/04/09 01:47:48;;;;;;;3.03;1.95;;;7.70;99.90;;;;;;5073748;28;20059;-81
2023/04/09 01:50:14;;;;;;;3.63;2.42;;;7.60;99.90;;;;;;5074716;28;20045;-81
2023/04/09 01:52:40;;;;;;;3.22;2.92;;;7.60;99.90;;;;;;5073365;28;20055;-82
2023/04/09 01:55:06;;;;;;;10.35;4.22;;;7.50;99.90;;;;;;5074199;28;20471;-81
2023/04/09 01:57:32;;;;;;;2.70;1.58;;;7.50;99.90;;;;;;5074683;28;20068;-81
2023/04/09 01:59:57;;;;;;;6.22;3.20;;;7.50;99.90;;;;;;5073872;28;20044;-81
2023/04/09 02:02:40;;;;;;;5.10;2.17;;;7.50;99.90;;;;;;5074523;28;20068;-81
2023/04/09 02:05:09;;;;;;;1.77;1.40;;;7.40;99.90;;;;;;5074588;28;20056;-82
2023/04/09 02:07:44;;;;;;;1.33;1.23;;;7.40;99.90;;;;;;5056940;28;20052;-82
2023/04/09 02:10:12;;;;;;;1.42;1.33;;;7.40;99.90;;;;;;5074163;28;20053;-82
2023/04/09 02:12:39;;;;;;;9.23;1.45;;;7.40;99.90;;;;;;5073064;28;20095;-80
2023/04/09 02:15:06;;;;;;;2.25;1.17;;;7.40;99.90;;;;;;5074580;28;20078;-81
2023/04/09 02:17:32;;;;;;;5.60;3.58;;;7.40;99.90;;;;;;5074174;28;20541;-81
2023/04/09 02:19:58;;;;;;;2.47;2.28;;;7.40;99.90;;;;;;5073056;28;20071;-81
2023/04/09 02:22:23;;;;;;;0.63;0.63;;;7.70;99.90;;;;;;5073115;28;20165;-83
2023/04/09 02:24:49;;;;;;;1.52;1.08;;;7.50;99.90;;;;;;5074806;28;20042;-81
2023/04/09 02:27:15;;;;;;;1.30;1.15;;;7.50;99.90;;;;;;5072665;28;20052;-82
2023/04/09 02:29:41;;;;;;;1.33;1.23;;;7.40;99.90;;;;;;5074500;28;20040;-81
2023/04/09 02:32:07;;;;;;;3.25;2.67;;;7.40;99.90;;;;;;5074060;28;20044;-81
2023/04/09 02:34:33;;;;;;;2.47;2.03;;;7.40;99.90;;;;;;5073827;28;20068;-81
2023/04/09 02:36:59;;;;;;;2.95;2.58;;;7.40;99.90;;;;;;5073480;28;20094;-82
2023/04/09 02:39:25;;;;;;;5.65;3.63;;;7.30;99.90;;;;;;5072239;28;20049;-82
2023/04/09 02:41:51;;;;;;;2.30;2.10;;;7.30;99.90;;;;;;5072396;28;20429;-81
2023/04/09 02:44:17;;;;;;;2.45;1.88;;;7.30;99.90;;;;;;5072909;28;20044;-80
2023/04/09 02:46:45;;;;;;;2.42;1.63;;;7.20;99.90;;;;;;5073207;28;20525;-81
2023/04/09 02:49:14;;;;;;;4.65;2.55;;;7.20;99.90;;;;;;5072026;28;20048;-81
2023/04/09 02:51:39;;;;;;;2.17;1.40;;;7.20;99.90;;;;;;5073052;28;20049;-81
2023/04/09 02:54:05;;;;;;;4.10;2.08;;;7.20;99.90;;;;;;5071209;28;20650;-83
2023/04/09 02:56:33;;;;;;;7.07;3.47;;;7.20;99.90;;;;;;5072613;28;20074;-81
2023/04/09 02:58:59;;;;;;;1.88;1.70;;;7.20;99.90;;;;;;5071827;28;20048;-80
2023/04/09 03:01:24;;;;;;;6.72;3.92;;;7.20;99.90;;;;;;5071369;28;20101;-80
2023/04/09 03:03:50;;;;;;;3.38;2.75;;;7.20;99.90;;;;;;5053677;28;20072;-82
2023/04/09 03:06:17;;;;;;;1.20;1.00;;;7.20;99.90;;;;;;5071571;28;20120;-81
2023/04/09 03:08:42;;;;;;;8.07;4.18;;;7.20;99.90;;;;;;5070107;28;20477;-81
2023/04/09 03:11:08;;;;;;;2.50;2.30;;;7.20;99.90;;;;;;5070468;28;20083;-81
2023/04/09 03:13:34;;;;;;;8.52;1.75;;;7.20;99.90;;;;;;5071919;28;20588;-80
2023/04/09 03:15:59;;;;;;;3.63;2.92;;;7.20;99.90;;;;;;5071660;28;20051;-80
2023/04/09 03:18:25;;;;;;;18.13;2.80;;;7.20;99.90;;;;;;5070853;28;20048;-80
2023/04/09 03:20:50;;;;;;;2.20;2.10;;;7.20;99.90;;;;;;5069451;28;20697;-81
2023/04/09 03:23:16;;;;;;;5.20;2.63;;;7.20;99.90;;;;;;5051346;28;20052;-81
2023/04/09 03:25:42;;;;;;;4.25;2.45;;;7.10;99.90;;;;;;5052043;28;20053;-80
2023/04/09 03:28:08;;;;;;;2.95;1.65;;;7.20;99.90;;;;;;5050976;28;20075;-81
2023/04/09 03:30:33;;;;;;;2.70;2.08;;;7.10;99.90;;;;;;5051405;28;20059;-81
2023/04/09 03:32:59;;;;;;;3.25;1.88;;;7.10;99.90;;;;;;5050390;28;20076;-80
2023/04/09 03:35:25;;;;;;;2.28;2.08;;;7.00;99.90;;;;;;5033278;28;20065;-81
2023/04/09 03:37:51;;;;;;;1.67;1.15;;;7.20;99.90;;;;;;5050646;28;20099;-81
2023/04/09 03:40:16;;;;;;;1.77;1.60;;;7.10;99.90;;;;;;5060736;28;20094;-80
2023/04/09 03:42:42;;;;;;;0.52;0.52;;;7.10;99.90;;;;;;5063007;28;20083;-80
2023/04/09 03:45:09;;;;;;;1.85;1.35;;;7.10;99.90;;;;;;5062583;28;20041;-81
2023/04/09 03:47:34;;;;;;;1.55;1.08;;;7.10;99.90;;;;;;5063842;28;20092;-81
2023/04/09 03:50:00;;;;;;;5.07;3.85;;;7.10;99.90;;;;;;5061912;28;20426;-79
2023/04/09 03:52:26;;;;;;;4.53;3.00;;;7.10;99.90;;;;;;5062054;28;20056;-81
2023/04/09 03:54:52;;;;;;;3.78;2.20;;;7.10;99.90;;;;;;5060430;28;20471;-82
2023/04/09 03:57:17;;;;;;;3.33;1.85;;;7.10;99.90;;;;;;5051616;28;20070;-81
2023/04/09 03:59:44;;;;;;;2.95;1.95;;;7.10;99.90;;;;;;5051788;28;20037;-80
2023/04/09 04:02:09;;;;;;;7.63;2.15;;;7.10;99.90;;;;;;5051329;28;20049;-82
2023/04/09 04:04:35;;;;;;;4.55;2.15;;;7.10;99.90;;;;;;5052060;28;20769;-80
2023/04/09 04:07:02;;;;;;;2.65;2.00;;;7.00;99.90;;;;;;5051251;28;20103;-80
2023/04/09 04:09:28;;;;;;;3.35;2.85;;;7.00;99.90;;;;;;5052033;28;20048;-81
2023/04/09 04:11:55;;;;;;;1.08;1.02;;;6.90;99.90;;;;;;5051065;28;20057;-82
2023/04/09 04:14:20;;;;;;;2.42;1.38;;;6.80;99.90;;;;;;5052161;28;20080;-82
2023/04/09 04:16:46;;;;;;;6.35;3.72;;;6.70;99.90;;;;;;5050275;28;20060;-81
2023/04/09 04:19:12;;;;;;;2.78;2.58;;;6.80;99.90;;;;;;5050167;28;20128;-81
2023/04/09 04:21:38;;;;;;;6.18;3.40;;;6.80;99.90;;;;;;5051395;28;20048;-80
2023/04/09 04:24:03;;;;;;;4.43;2.63;;;6.80;99.90;;;;;;5051049;28;20437;-82
2023/04/09 04:26:29;;;;;;;2.67;1.85;;;6.80;99.90;;;;;;5050870;28;20044;-81
2023/04/09 04:28:55;;;;;;;2.00;1.85;;;6.80;99.90;;;;;;5050816;28;20056;-82
2023/04/09 04:31:20;;;;;;;3.60;1.83;;;6.90;99.90;;;;;;5050026;28;20474;-81
2023/04/09 04:33:46;;;;;;;3.22;2.38;;;6.90;99.90;;;;;;5051590;28;20045;-81
2023/04/09 04:36:12;;;;;;;1.10;1.05;;;6.90;99.90;;;;;;5051311;28;20044;-81
2023/04/09 04:38:40;;;;;;;4.07;3.22;;;7.00;99.90;;;;;;5050233;28;20060;-82
2023/04/09 04:41:06;;;;;;;2.42;2.00;;;7.00;99.90;;;;;;5048986;28;20044;-81
2023/04/09 04:43:32;;;;;;;5.95;1.77;;;7.00;99.90;;;;;;5051295;28;20122;-81
2023/04/09 04:45:58;;;;;;;1.85;1.75;;;7.10;99.90;;;;;;5052047;28;20048;-82
2023/04/09 04:48:25;;;;;;;4.32;1.10;;;7.00;99.90;;;;;;5051437;28;20120;-82
2023/04/09 04:50:55;;;;;;;1.90;1.77;;;7.10;99.90;;;;;;5050066;28;20044;-82
2023/04/09 04:53:21;;;;;;;2.85;2.45;;;7.10;99.90;;;;;;5051403;28;20055;-81
2023/04/09 04:55:47;;;;;;;3.22;2.45;;;7.10;99.90;;;;;;5051331;28;20053;-81
2023/04/09 04:58:12;;;;;;;3.90;3.33;;;7.10;99.90;;;;;;5052036;28;20059;-81
2023/04/09 05:00:38;;;;;;;3.78;3.38;;;7.10;99.90;;;;;;5051225;28;20064;-82
2023/04/09 05:03:04;;;;;;;14.63;2.10;;;7.10;99.90;;;;;;5054004;28;20053;-81
2023/04/09 05:05:29;;;;;;;12.88;4.82;;;7.10;99.90;;;;;;5054968;28;20052;-80
2023/04/09 05:07:55;;;;;;;1.95;1.77;;;7.10;99.90;;;;;;5054290;28;20399;-81
2023/04/09 05:10:21;;;;;;;2.63;2.33;;;7.20;99.90;;;;;;5054420;28;20132;-82
2023/04/09 05:12:46;;;;;;;2.17;1.77;;;7.20;99.90;;;;;;5054431;28;20048;-82
2023/04/09 05:15:13;;;;;;;3.08;2.13;;;7.20;99.90;;;;;;5053566;28;20505;-81
2023/04/09 05:17:42;;;;;;;1.58;1.48;;;7.20;99.90;;;;;;5054653;28;20529;-80
2023/04/09 05:20:08;;;;;;;3.10;1.48;;;7.20;99.90;;;;;;5054037;28;20076;-81
2023/04/09 05:22:35;;;;;;;1.65;1.55;;;7.20;99.90;;;;;;5054390;28;20045;-81
2023/04/09 05:25:01;;;;;;;1.33;1.23;;;7.20;99.90;;;;;;5054227;28;20551;-82
2023/04/09 05:27:29;;;;;;;3.65;3.35;;;7.30;99.90;;;;;;5053366;28;20132;-80
2023/04/09 05:29:55;;;;;;;1.77;1.63;;;7.30;99.90;;;;;;5054655;28;20068;-81
2023/04/09 05:32:21;;;;;;;5.40;1.73;;;7.30;99.90;;;;;;5054079;28;20090;-82
2023/04/09 05:34:46;;;;;;;6.70;2.72;;;7.30;99.90;;;;;;5053968;28;20045;-81
2023/04/09 05:37:12;;;;;;;2.80;2.58;;;7.40;99.90;;;;;;5054138;28;20120;-81
2023/04/09 05:39:38;;;;;;;7.03;2.95;;;7.60;99.90;;;;;;5051558;28;20053;-82
2023/04/09 05:42:04;;;;;;;5.45;2.67;;;7.40;99.90;;;;;;5051957;28;20585;-82
2023/04/09 05:44:30;;;;;;;5.50;2.55;;;7.40;99.90;;;;;;5050946;28;20056;-82
2023/04/09 05:46:55;;;;;;;2.05;1.75;;;7.40;99.90;;;;;;5052091;28;20049;-80
2023/04/09 05:49:21;;;;;;;7.32;3.30;;;7.40;99.90;;;;;;5051139;28;20047;-82
2023/04/09 05:51:47;;;;;;;4.65;2.03;;;7.40;99.90;;;;;;5050633;28;20049;-83
2023/04/09 05:54:12;;;;;;;7.68;3.70;;;7.40;1.00;;;;;;5051843;28;20049;-81
2023/04/09 05:56:38;;;;;;;4.75;3.42;;;7.50;1.00;;;;;;5051411;28;20052;-82
2023/04/09 05:59:03;;;;;;;2.45;1.80;;;7.50;1.00;;;;;;5057816;28;20048;-81
2023/04/09 06:01:29;;;;;;;3.50;2.13;;;7.50;99.90;;;;;;5061991;28;20391;-81
2023/04/09 06:03:55;;;;;;;2.25;1.80;;;7.70;99.90;;;;;;5061520;28;20051;-80
2023/04/09 06:06:20;;;;;;;1.15;1.05;;;7.60;99.90;;;;;;5062900;28;20045;-80
2023/04/09 06:08:46;;;;;;;5.45;2.47;;;7.70;99.90;;;;;;5062961;28;20542;-80
2023/04/09 06:11:12;;;;;;;2.55;1.80;;;7.70;99.90;;;;;;5054196;28;20052;-82
2023/04/09 06:13:39;;;;;;;5.07;3.53;;;7.80;99.90;;;;;;5050222;28;20081;-82
2023/04/09 06:16:06;;;;;;;2.70;1.08;;;7.90;16.60;;;;;;5052210;28;20059;-81
2023/04/09 06:18:36;;;;;;;2.47;2.30;;;7.90;1.00;;;;;;5051294;28;20140;-81
2023/04/09 06:21:06;;;;;;;5.13;2.60;;;7.80;99.90;;;;;;5051501;28;20295;-82
2023/04/09 06:23:33;;;;;;;11.02;3.35;;;7.80;17.20;;;;;;5052368;28;20055;-81
2023/04/09 06:25:59;;;;;;;5.03;3.00;;;7.90;43.00;;;;;;5055386;28;20060;-82
2023/04/09 06:28:25;;;;;;;3.13;2.40;;;7.90;1.00;;;;;;5058635;28;20049;-81
2023/04/09 06:30:53;;;;;;;7.22;3.85;;;7.90;99.90;;;;;;5058978;28;20057;-81
2023/04/09 06:33:19;;;;;;;5.15;3.72;;;7.90;99.90;;;;;;5059802;28;20053;-83
2023/04/09 06:35:48;;;;;;;5.38;3.83;;;7.80;6.00;;;;;;5059626;28;20048;-81
2023/04/09 06:38:17;;;;;;;6.57;3.33;;;7.80;99.90;;;;;;5061281;28;20059;-82
2023/04/09 06:40:46;;;;;;;5.75;3.83;;;7.80;99.90;;;;;;5059509;28;20044;-81
2023/04/09 06:43:11;;;;;;;5.13;4.40;;;7.80;99.90;;;;;;5061692;28;20056;-82
2023/04/09 06:45:37;;;;;;;2.47;2.17;;;7.90;99.90;;;;;;5061650;28;20089;-82
2023/04/09 06:48:03;;;;;;;5.55;2.92;;;8.00;99.90;;;;;;5062207;28;20041;-81
2023/04/09 06:50:29;;;;;;;3.50;3.08;;;8.10;99.90;;;;;;5062586;28;20113;-80
2023/04/09 06:52:57;;;;;;;2.80;1.90;;;8.20;99.90;;;;;;5063579;28;20348;-81
2023/04/09 06:55:23;;;;;;;1.90;1.77;;;8.30;1.00;;;;;;5062893;28;20087;-81
2023/04/09 06:57:48;;;;;;;2.42;2.13;;;8.50;99.90;;;;;;5062091;28;20040;-81
2023/04/09 07:00:14;;;;;;;5.78;4.07;;;8.50;99.90;;;;;;5062750;28;20047;-81
2023/04/09 07:02:40;;;;;;;5.30;2.30;;;8.60;99.90;;;;;;5062332;28;20041;-81
2023/04/09 07:05:06;;;;;;;4.05;2.88;;;8.80;99.90;;;;;;5060844;28;20124;-81
2023/04/09 07:07:32;;;;;;;4.68;3.17;;;8.90;1.00;;;;;;5057517;28;20053;-80
2023/04/09 07:09:58;;;;;;;2.75;2.17;;;9.00;1.00;;;;;;5054269;28;20049;-81
2023/04/09 07:12:26;;;;;;;11.52;5.80;;;9.10;99.90;;;;;;5052054;28;20088;-81
2023/04/09 07:14:52;;;;;;;4.45;3.10;;;9.10;99.90;;;;;;5051594;28;20087;-81
2023/04/09 07:17:19;;;;;;;5.43;3.40;;;10.00;99.90;;;;;;5051689;28;20087;-81
2023/04/09 07:19:45;;;;;;;7.85;3.22;;;9.20;99.90;;;;;;5051106;28;20052;-81
2023/04/09 07:22:10;;;;;;;5.45;3.15;;;9.10;99.90;;;;;;5050274;28;20485;-81
2023/04/09 07:24:36;;;;;;;1.73;1.60;;;9.50;99.90;;;;;;5051507;28;20049;-81
2023/04/09 07:27:05;;;;;;;8.45;3.75;;;9.80;99.90;;;;;;5051495;28;20049;-81
2023/04/09 07:29:31;;;;;;;4.32;3.90;;;9.80;99.90;;;;;;5050965;28;20049;-82
2023/04/09 07:32:00;;;;;;;5.03;2.85;;;9.80;99.90;;;;;;5050055;28;20056;-82
2023/04/09 07:34:26;;;;;;;5.25;1.80;;;9.60;99.90;;;;;;5051226;28;20045;-82
2023/04/09 07:36:52;;;;;;;3.83;2.50;;;9.70;99.90;;;;;;5051087;28;20045;-82
2023/04/09 07:39:19;;;;;;;3.70;2.83;;;9.90;99.90;;;;;;5051341;28;20122;-82
2023/04/09 07:41:46;;;;;;;1.83;1.10;;;10.10;99.90;;;;;;5051108;28;20102;-82
2023/04/09 07:44:12;;;;;;;7.57;3.63;;;10.20;99.90;;;;;;5051649;28;20481;-82
2023/04/09 07:46:38;;;;;;;11.75;4.00;;;10.50;66.70;;;;;;5052021;28;20071;-82
2023/04/09 07:49:04;;;;;;;2.90;2.25;;;10.80;21.30;;;;;;5049549;28;20041;-83
2023/04/09 07:51:31;;;;;;;18.73;4.45;;;10.60;1.00;;;;;;5051754;28;20368;-82
2023/04/09 07:53:56;;;;;;;2.70;2.47;;;10.40;1.00;;;;;;5051667;28;20133;-82
2023/04/09 07:56:22;;;;;;;3.65;2.47;;;10.30;1.00;;;;;;5050851;28;20101;-82
2023/04/09 07:58:49;;;;;;;9.43;4.88;;;10.30;1.00;;;;;;5050074;28;20102;-81
2023/04/09 08:01:15;;;;;;;2.78;2.05;;;10.00;1.00;;;;;;5051532;28;20041;-81
2023/04/09 08:03:41;;;;;;;6.70;2.45;;;10.50;1.00;;;;;;5050691;28;20041;-81
2023/04/09 08:06:07;;;;;;;3.15;2.05;;;10.90;1.00;;;;;;5048695;28;20383;-82
2023/04/09 08:08:33;;;;;;;3.30;2.15;;;11.00;99.90;;;;;;5049391;28;20049;-81
2023/04/09 08:10:58;;;;;;;1.67;1.58;;;11.10;99.90;;;;;;5048041;28;20048;-81
2023/04/09 08:13:24;;;;;;;9.02;2.55;;;11.50;99.90;;;;;;5048026;28;20498;-80
2023/04/09 08:15:50;;;;;;;6.45;4.32;;;12.30;99.90;;;;;;5055084;28;20029;-81
2023/04/09 08:18:16;;;;;;;7.35;2.67;;;12.70;99.90;;;;;;5057979;28;20100;-81
2023/04/09 08:20:44;;;;;;;3.03;2.55;;;12.80;99.90;;;;;;5053408;28;20191;-82
2023/04/09 08:23:10;;;;;;;9.32;4.28;;;11.80;99.90;;;;;;5061684;28;20044;-83
2023/04/09 08:25:36;;;;;;;3.15;2.63;;;11.40;99.90;;;;;;5062700;28;20132;-81
2023/04/09 08:28:02;;;;;;;3.38;1.73;;;11.30;99.90;;;;;;5051337;28;20510;-83
2023/04/09 08:30:27;;;;;;;3.15;1.98;;;11.10;99.90;;;;;;5050661;28;20075;-82
2023/04/09 08:32:53;;;;;;;2.97;2.50;;;11.20;99.90;;;;;;5050716;28;20057;-82
2023/04/09 08:35:19;;;;;;;9.60;3.38;;;12.00;99.90;;;;;;5051496;28;20049;-82
2023/04/09 08:37:44;;;;;;;9.98;1.98;;;12.30;99.90;;;;;;5052072;28;20141;-82
2023/04/09 08:40:10;;;;;;;5.07;3.17;;;12.90;99.90;;;;;;5053419;28;20044;-82
2023/04/09 08:42:46;;;;;;;6.90;2.53;;;12.70;99.90;;;;;;5053379;28;20483;-82
2023/04/09 08:45:12;;;;;;;4.32;3.40;;;12.50;99.90;;;;;;5053477;28;20049;-81
2023/04/09 08:47:41;;;;;;;8.70;3.20;;;12.90;99.90;;;;;;5054182;28;20117;-82
2023/04/09 08:50:07;;;;;;;2.85;2.47;;;13.70;99.90;;;;;;5054681;28;20152;-82
2023/04/09 08:52:34;;;;;;;3.97;2.97;;;12.80;99.90;;;;;;5054707;28;20134;-81
2023/04/09 08:55:00;;;;;;;2.75;1.95;;;12.50;99.90;;;;;;5054379;28;20045;-80
2023/04/09 08:57:26;;;;;;;8.13;3.55;;;13.10;99.90;;;;;;5053904;28;20060;-82
2023/04/09 08:59:51;;;;;;;3.53;1.83;;;13.10;99.90;;;;;;5054141;28;20041;-82
2023/04/09 09:02:17;;;;;;;3.33;2.38;;;13.50;99.90;;;;;;5054329;28;20068;-81
2023/04/09 09:04:49;;;;;;;5.85;3.38;;;12.90;99.90;;;;;;5054521;28;20037;-82
2023/04/09 09:07:16;;;;;;;7.30;4.30;;;13.00;99.90;;;;;;5054591;28;20095;-81
2023/04/09 09:09:59;;;;;;;4.63;2.53;;;13.70;99.90;;;;;;5053814;28;20115;-81
2023/04/09 09:12:32;;;;;;;3.50;2.97;;;14.40;99.90;;;;;;5068135;28;20049;-80
2023/04/09 09:14:58;;;;;;;4.05;2.63;;;14.70;99.90;;;;;;5054115;28;20045;-82
2023/04/09 09:17:23;;;;;;;4.30;2.85;;;14.20;99.90;;;;;;5053276;28;20057;-81
2023/04/09 09:19:49;;;;;;;4.35;3.05;;;14.00;99.90;;;;;;5052137;28;20044;-81
2023/04/09 09:22:15;;;;;;;11.05;5.03;;;15.00;99.90;;;;;;5054148;28;20056;-81
2023/04/09 09:24:47;;;;;;;10.05;4.15;;;14.40;99.90;;;;;;5053823;28;20088;-81
2023/04/09 09:27:35;;;;;;;3.25;2.00;;;15.00;99.90;;;;;;5053655;28;20095;-83
2023/04/09 09:30:02;;;;;;;3.25;2.13;;;15.50;99.90;;;;;;5054268;28;20056;-80
2023/04/09 09:32:27;;;;;;;2.22;1.40;;;13.90;99.90;;;;;;5053722;28;20102;-80
2023/04/09 09:35:04;;;;;;;3.38;2.42;;;13.30;99.90;;;;;;5070416;28;20037;-80
2023/04/09 09:37:30;;;;;;;3.97;1.73;;;13.80;99.90;;;;;;5073256;28;20048;-81
2023/04/09 09:39:56;;;;;;;3.70;2.58;;;14.20;99.90;;;;;;5074064;28;20048;-81
2023/04/09 09:42:22;;;;;;;3.50;2.80;;;13.80;99.90;;;;;;5073587;28;20076;-81
2023/04/09 09:44:50;;;;;;;2.70;2.40;;;13.80;99.90;;;;;;5073108;28;20072;-81
2023/04/09 09:47:18;;;;;;;4.57;2.10;;;13.50;99.90;;;;;;5071940;28;20079;-82
2023/04/09 09:49:45;;;;;;;1.75;1.38;;;14.50;99.90;;;;;;5070549;28;20115;-82
2023/04/09 09:52:10;;;;;;;21.13;4.47;;;14.70;99.90;;;;;;5052401;28;20106;-81
2023/04/09 09:54:42;;;;;;;3.50;2.50;;;14.80;99.90;;;;;;5070546;28;20048;-82
2023/04/09 09:57:12;;;;;;;4.15;2.00;;;15.00;99.90;;;;;;5067974;28;20078;-81
2023/04/09 09:59:42;;;;;;;4.68;2.70;;;14.40;99.90;;;;;;5067824;28;20131;-81
2023/04/09 10:02:19;;;;;;;8.55;3.28;;;14.90;92.60;;;;;;5068139;28;20472;-81
2023/04/09 10:04:45;;;;;;;3.33;2.30;;;14.50;99.90;;;;;;5068303;28;20053;-81
2023/04/09 10:07:14;;;;;;;6.10;3.00;;;14.80;99.40;;;;;;5066611;28;20044;-82
2023/04/09 10:09:45;;;;;;;12.45;3.92;;;14.90;99.90;;;;;;5067201;28;20518;-81
2023/04/09 10:12:11;;;;;;;7.95;3.40;;;16.00;99.90;;;;;;5068908;28;20044;-80
2023/04/09 10:14:38;;;;;;;5.10;2.47;;;15.60;99.90;;;;;;5066784;28;20409;-81
2023/04/09 10:17:04;;;;;;;4.18;2.50;;;15.80;92.50;;;;;;5069167;28;20135;-81
2023/04/09 10:19:33;;;;;;;6.88;3.28;;;15.60;99.70;;;;;;5067635;28;20127;-82
2023/04/09 10:22:08;;;;;;;5.78;2.55;;;15.00;90.80;;;;;;5067141;28;20080;-81
2023/04/09 10:24:35;;;;;;;4.50;3.08;;;14.40;88.00;;;;;;5070329;28;20048;-81
2023/04/09 10:27:11;;;;;;;2.63;2.13;;;14.20;87.90;;;;;;5091866;28;20036;-81
2023/04/09 10:29:48;;;;;;;2.20;1.50;;;14.30;95.20;;;;;;5092277;28;20031;-82
2023/04/09 10:32:21;;;;;;;2.42;0.85;;;13.90;82.30;;;;;;5092130;28;20024;-81
2023/04/09 10:34:48;;;;;;;7.30;4.28;;;14.00;85.20;;;;;;5091091;28;20052;-81
2023/04/09 10:37:19;;;;;;;1.52;1.20;;;13.90;84.60;;;;;;5092056;28;20040;-81
2023/04/09 10:39:49;;;;;;;6.82;3.47;;;14.10;93.60;;;;;;5072402;28;20082;-82
2023/04/09 10:42:36;;;;;;;1.73;1.63;;;14.80;99.90;;;;;;5072591;28;20684;-82
2023/04/09 10:45:09;;;;;;;3.03;2.40;;;15.60;99.90;;;;;;5073134;28;20597;-81
2023/04/09 10:47:36;;;;;;;2.58;1.75;;;15.70;99.90;;;;;;5072192;28;20048;-82
2023/04/09 10:50:32;;;;;;;4.93;2.67;;;15.40;96.10;;;;;;5072857;28;20044;-81
2023/04/09 10:52:59;;;;;;;7.25;2.42;;;16.10;99.90;;;;;;5071835;28;20140;-81
2023/04/09 10:55:39;;;;;;;4.88;3.95;;;15.60;94.60;;;;;;5072652;28;20052;-81
2023/04/09 10:58:06;;;;;;;4.28;2.72;;;15.80;78.90;;;;;;5071220;28;20044;-81
2023/04/09 11:00:40;;;;;;;4.75;2.92;;;15.90;95.30;;;;;;5072149;28;20502;-81
2023/04/09 11:03:28;;;;;;;4.32;1.85;;;15.80;95.80;;;;;;5070374;28;20804;-82
2023/04/09 11:06:04;;;;;;;4.70;2.78;;;16.40;96.30;;;;;;5072099;28;20454;-81
2023/04/09 11:08:32;;;;;;;4.00;2.58;;;16.50;99.90;;;;;;5071913;28;20383;-81
2023/04/09 11:10:59;;;;;;;6.38;2.03;;;16.20;92.30;;;;;;5072466;28;20048;-81
2023/04/09 11:13:27;;;;;;;3.75;2.47;;;16.20;90.80;;;;;;5070881;28;20051;-82
2023/04/09 11:15:54;;;;;;;5.65;3.20;;;16.50;99.90;;;;;;5072362;28;20123;-82
2023/04/09 11:18:22;;;;;;;2.05;1.63;;;17.10;99.90;;;;;;5072260;28;20501;-81
2023/04/09 11:20:48;;;;;;;2.92;2.47;;;16.10;71.60;;;;;;5072356;28;20125;-82
2023/04/09 11:23:16;;;;;;;1.70;1.42;;;16.30;85.20;;;;;;5071788;28;20539;-82
2023/04/09 11:25:46;;;;;;;3.22;1.75;;;16.40;95.80;;;;;;5071323;28;20051;-81
2023/04/09 11:28:13;;;;;;;2.35;1.80;;;16.00;58.90;;;;;;5069861;28;20040;-80
2023/04/09 11:30:38;;;;;;;3.50;1.98;;;16.70;99.90;;;;;;5071589;28;20055;-81
2023/04/09 11:33:07;;;;;;;8.32;3.13;;;17.80;99.20;;;;;;5070113;28;20037;-81
2023/04/09 11:35:35;;;;;;;2.63;2.03;;;17.80;93.30;;;;;;5072449;28;20108;-82
2023/04/09 11:38:04;;;;;;;5.00;2.75;;;18.10;82.40;;;;;;5066631;28;20115;-82
2023/04/09 11:40:30;;;;;;;1.20;1.10;;;17.70;95.40;;;;;;5065852;28;20056;-82
2023/04/09 11:42:56;;;;;;;1.15;1.05;;;17.50;74.70;;;;;;5067429;28;20045;-81
2023/04/09 11:45:27;;;;;;;3.85;2.70;;;17.50;61.50;;;;;;5068685;28;20040;-81
2023/04/09 11:47:53;;;;;;;5.63;2.22;;;18.00;70.50;;;;;;5066975;28;20059;-82
2023/04/09 11:50:22;;;;;;;3.58;2.05;;;18.50;84.90;;;;;;5066270;28;20135;-82
2023/04/09 11:52:48;;;;;;;3.88;3.33;;;18.40;69.30;;;;;;5066955;28;20051;-82
2023/04/09 11:55:28;;;;;;;3.13;1.15;;;17.80;42.90;;;;;;5066948;28;20041;-81
2023/04/09 11:57:59;;;;;;;4.72;2.78;;;18.80;92.60;;;;;;5067544;28;20052;-81
2023/04/09 12:00:26;;;;;;;4.22;2.67;;;18.50;50.60;;;;;;5066783;28;20052;-82
2023/04/09 12:03:01;;;;;;;4.68;2.53;;;18.30;55.20;;;;;;5066185;28;20498;-81
2023/04/09 12:05:31;;;;;;;1.73;1.20;;;18.20;58.00;;;;;;5065154;28;20102;-81
2023/04/09 12:08:03;;;;;;;2.60;1.83;;;17.80;32.10;;;;;;5067561;28;20048;-81
2023/04/09 12:10:34;;;;;;;5.78;2.78;;;16.70;1.00;;;;;;5065596;28;20063;-81
2023/04/09 12:13:10;;;;;;;4.03;2.70;;;17.30;11.40;;;;;;5069376;28;20052;-81
2023/04/09 12:15:42;;;;;;;1.65;1.23;;;17.70;21.00;;;;;;5070505;28;20044;-82
2023/04/09 12:18:09;;;;;;;2.67;2.40;;;18.10;19.00;;;;;;5069667;28;20418;-81
2023/04/09 12:20:38;;;;;;;2.30;2.00;;;18.30;7.00;;;;;;5070376;28;20478;-81
2023/04/09 12:23:05;;;;;;;2.05;1.58;;;16.70;1.00;;;;;;5070950;28;20154;-81
2023/04/09 12:25:35;;;;;;;2.00;1.63;;;16.80;1.00;;;;;;5069575;28;20044;-80
2023/04/09 12:28:05;;;;;;;4.65;2.78;;;17.80;1.20;;;;;;5070280;28;20080;-81
2023/04/09 12:30:31;;;;;;;1.85;1.48;;;18.80;17.20;;;;;;5069706;28;20055;-82
2023/04/09 12:32:57;;;;;;;3.42;1.88;;;17.50;1.00;;;;;;5069896;28;20044;-82
2023/04/09 12:35:23;;;;;;;3.30;2.13;;;17.60;1.00;;;;;;5070468;28;20056;-80
2023/04/09 12:37:50;;;;;;;3.20;2.08;;;17.80;1.00;;;;;;5069862;28;20398;-82
2023/04/09 12:40:16;;;;;;;2.40;2.13;;;17.10;1.00;;;;;;5069347;28;20402;-82
2023/04/09 12:42:43;;;;;;;5.05;3.47;;;17.40;1.00;;;;;;5082858;28;20028;-81
2023/04/09 12:45:10;;;;;;;4.10;3.13;;;16.80;1.00;;;;;;5073495;28;20486;-81
2023/04/09 12:47:36;;;;;;;4.95;2.47;;;15.90;1.00;;;;;;5067729;28;20619;-82
2023/04/09 12:50:03;;;;;;;5.18;1.92;;;15.70;1.00;;;;;;5068804;28;20036;-81
2023/04/09 12:52:29;;;;;;;5.18;3.28;;;15.50;1.00;;;;;;5076909;28;20021;-82
2023/04/09 12:54:55;;;;;;;3.80;2.58;;;15.90;1.00;;;;;;5092763;28;20056;-81